Terminal Aerodrome Forecast
Issued by NWS New Orleans/Baton Rouge, LA

Home | Current Version | Previous Version | Text Only | Print | Product List | Glossary On
Versions: 1 2 3 4 5 6 7 8 9 10 11 12 13 14 15 16 17 18 19 20 21 22 23 24 25 26
337
FTUS44 KLIX 202105 AAA
TAFBTR
TAF AMD
KBTR 202105Z 2021/2118 14010KT P6SM VCSH BKN035
     FM210000 13009KT P6SM VCSH BKN015 OVC035
     FM210300 15008KT 5SM -SHRA OVC008 PROB30 2106/2109 2SM TSRA
      OVC003CB
     FM210900 29004KT 5SM -SHRA OVC015
     FM211300 33004KT 4SM -SHRA BR OVC008
     FM211700 28005KT P6SM SCT015 BKN035=

USA.gov is the U.S. government's official web portal to all federal, state and local government web resources and services.